Time;durP1;ratioP1;P1;durP2;ratioP2;P2;SDS_P1;SDS_P2;PMS_P1;PMS_P2;Temp;Humidity;BMP_temperature;BMP_pressure;BME280_temperature;BME280_humidity;BME280_pressure;Samples;Min_cycle;Max_cycle;Signal;HPM_P1;HPM_P2
2023/03/06 00:00:45;;;;;;;4.32;2.83;;;4.20;99.90;;;;;;4906618;29;20036;-79
2023/03/06 00:03:10;;;;;;;2.67;2.40;;;4.30;99.90;;;;;;4900103;29;20481;-77
2023/03/06 00:05:36;;;;;;;2.85;2.35;;;4.30;99.90;;;;;;4915512;29;20024;-78
2023/03/06 00:08:02;;;;;;;6.40;2.85;;;4.30;99.90;;;;;;4901710;29;20028;-78
2023/03/06 00:10:30;;;;;;;3.22;2.75;;;4.30;99.90;;;;;;4893570;29;20120;-78
2023/03/06 00:12:58;;;;;;;3.10;2.40;;;4.20;99.90;;;;;;4920043;29;20043;-79
2023/03/06 00:15:25;;;;;;;;;;;4.30;99.90;;;;;;4919315;29;20035;-77
2023/03/06 00:17:51;;;;;;;4.53;2.67;;;4.20;99.90;;;;;;4920153;29;19915;-78
2023/03/06 00:20:17;;;;;;;4.00;2.90;;;4.20;99.90;;;;;;4903062;29;20034;-79
2023/03/06 00:22:43;;;;;;;3.03;2.38;;;4.20;99.90;;;;;;4920241;29;20068;-79
2023/03/06 00:25:14;;;;;;;3.78;2.78;;;4.20;99.90;;;;;;4903100;29;20059;-78
2023/03/06 00:27:42;;;;;;;4.38;3.10;;;4.10;99.90;;;;;;4902699;29;20091;-78
2023/03/06 00:30:11;;;;;;;3.20;2.83;;;4.10;99.90;;;;;;4919932;29;20039;-78
2023/03/06 00:32:37;;;;;;;3.00;2.55;;;4.10;99.90;;;;;;4903247;29;20501;-78
2023/03/06 00:35:03;;;;;;;5.47;2.85;;;4.10;99.90;;;;;;4919782;29;20079;-79
2023/03/06 00:37:29;;;;;;;3.67;2.75;;;4.00;99.90;;;;;;4902918;29;20507;-78
2023/03/06 00:39:55;;;;;;;4.03;2.20;;;4.00;99.90;;;;;;4903203;29;20036;-79
2023/03/06 00:42:21;;;;;;;3.53;3.08;;;4.00;99.90;;;;;;4919858;29;20036;-78
2023/03/06 00:44:46;;;;;;;2.30;2.10;;;4.00;99.90;;;;;;4919746;29;20511;-77
2023/03/06 00:47:16;;;;;;;2.58;2.20;;;4.00;99.90;;;;;;4919693;29;20039;-79
2023/03/06 00:49:42;;;;;;;6.00;2.58;;;4.10;99.90;;;;;;4919361;29;20032;-78
2023/03/06 00:52:08;;;;;;;5.18;3.30;;;4.10;99.90;;;;;;4899646;29;20423;-78
2023/03/06 00:54:34;;;;;;;4.05;2.70;;;4.10;99.90;;;;;;4899778;29;20036;-79
2023/03/06 00:56:59;;;;;;;6.90;3.28;;;4.10;99.90;;;;;;4920622;29;20020;-79
2023/03/06 00:59:26;;;;;;;7.18;3.92;;;4.10;99.90;;;;;;4901931;29;20504;-78
2023/03/06 01:01:52;;;;;;;5.35;4.28;;;4.10;99.90;;;;;;4902567;29;20516;-78
2023/03/06 01:04:18;;;;;;;10.15;4.75;;;4.10;99.90;;;;;;4902392;29;20048;-78
2023/03/06 01:06:45;;;;;;;8.85;4.63;;;4.10;99.90;;;;;;4902172;29;20047;-78
2023/03/06 01:09:10;;;;;;;5.70;4.20;;;4.10;99.90;;;;;;4917824;29;20047;-78
2023/03/06 01:11:36;;;;;;;6.85;4.68;;;4.10;99.90;;;;;;4901152;29;20028;-77
2023/03/06 01:14:02;;;;;;;9.38;4.80;;;4.00;99.90;;;;;;4918819;29;20035;-78
2023/03/06 01:16:28;;;;;;;5.57;4.20;;;4.00;99.90;;;;;;4900154;29;20032;-78
2023/03/06 01:18:54;;;;;;;7.95;5.45;;;4.00;99.90;;;;;;4901504;29;20482;-78
2023/03/06 01:21:20;;;;;;;8.40;4.72;;;4.00;99.90;;;;;;4919196;29;20107;-78
2023/03/06 01:23:46;;;;;;;8.00;5.15;;;4.00;99.90;;;;;;4901639;29;20032;-78
2023/03/06 01:26:12;;;;;;;13.45;5.40;;;3.90;99.90;;;;;;4918264;29;20020;-78
2023/03/06 01:28:39;;;;;;;9.30;6.05;;;3.90;99.90;;;;;;4918245;29;20036;-79
2023/03/06 01:31:06;;;;;;;9.80;5.60;;;3.80;99.90;;;;;;4901782;29;20024;-79
2023/03/06 01:33:33;;;;;;;11.40;6.00;;;3.80;99.90;;;;;;4916705;29;20040;-79
2023/03/06 01:35:58;;;;;;;12.60;5.30;;;3.70;99.90;;;;;;4904329;29;20657;-78
2023/03/06 01:38:24;;;;;;;8.32;5.60;;;3.70;99.90;;;;;;4918975;29;20020;-78
2023/03/06 01:40:50;;;;;;;11.48;6.32;;;3.60;99.90;;;;;;4918935;29;20032;-78
2023/03/06 01:43:27;;;;;;;10.07;5.90;;;3.70;99.90;;;;;;4901538;29;20044;-79
2023/03/06 01:46:15;;;;;;;11.10;6.53;;;3.60;99.90;;;;;;4901432;29;20028;-79
2023/03/06 01:48:41;;;;;;;12.18;6.38;;;3.50;99.90;;;;;;4901696;29;20040;-79
2023/03/06 01:51:07;;;;;;;9.82;5.30;;;3.50;99.90;;;;;;4915648;29;20123;-78
2023/03/06 01:53:33;;;;;;;10.10;6.00;;;3.50;99.90;;;;;;4914289;29;20478;-79
2023/03/06 01:55:59;;;;;;;9.98;6.20;;;3.40;99.90;;;;;;4898458;29;20401;-78
2023/03/06 01:58:25;;;;;;;14.18;5.90;;;3.40;99.90;;;;;;4905183;29;20024;-78
2023/03/06 02:00:50;;;;;;;8.48;5.93;;;3.30;99.90;;;;;;4885457;29;20378;-78
2023/03/06 02:03:25;;;;;;;10.45;6.53;;;3.30;99.90;;;;;;4918471;29;20055;-78
2023/03/06 02:05:51;;;;;;;9.63;5.60;;;3.30;99.90;;;;;;4918494;29;20430;-78
2023/03/06 02:08:19;;;;;;;10.80;5.57;;;3.20;99.90;;;;;;4924042;29;20070;-78
2023/03/06 02:11:19;;;;;;;10.52;6.38;;;3.20;99.90;;;;;;4910098;29;20028;-78
2023/03/06 02:13:46;;;;;;;9.95;5.57;;;3.20;99.90;;;;;;4877785;29;20049;-78
2023/03/06 02:16:13;;;;;;;11.75;6.13;;;3.10;99.90;;;;;;4941593;29;20099;-77
2023/03/06 02:18:40;;;;;;;9.82;6.05;;;3.10;99.90;;;;;;4957999;29;20036;-77
2023/03/06 02:21:12;;;;;;;11.18;6.03;;;3.10;99.90;;;;;;4938587;29;20059;-79
2023/03/06 02:24:07;;;;;;;8.65;4.85;;;3.20;99.90;;;;;;4924975;29;20044;-78
2023/03/06 02:26:35;;;;;;;12.52;5.55;;;3.20;99.90;;;;;;4941207;29;20095;-80
2023/03/06 02:29:01;;;;;;;8.57;4.88;;;3.20;99.90;;;;;;4923216;29;20032;-79
2023/03/06 02:31:29;;;;;;;9.05;5.45;;;3.20;99.90;;;;;;4941750;29;20107;-78
2023/03/06 02:34:06;;;;;;;7.07;4.93;;;3.20;99.90;;;;;;4947629;28;20035;-78
2023/03/06 02:36:36;;;;;;;8.15;4.97;;;3.20;99.90;;;;;;4949931;28;20027;-79
2023/03/06 02:39:04;;;;;;;9.18;4.63;;;3.30;99.90;;;;;;4919418;29;20025;-80
2023/03/06 02:41:30;;;;;;;8.05;5.00;;;3.40;99.90;;;;;;4909259;29;20037;-79
2023/03/06 02:43:55;;;;;;;11.68;4.57;;;3.40;99.90;;;;;;4942370;29;20019;-79
2023/03/06 02:46:21;;;;;;;8.57;5.32;;;3.50;99.90;;;;;;4941844;29;20048;-79
2023/03/06 02:48:47;;;;;;;9.27;5.53;;;3.50;99.90;;;;;;4941948;29;20024;-79
2023/03/06 02:51:12;;;;;;;8.27;4.97;;;3.50;99.90;;;;;;4941855;29;20048;-78
2023/03/06 02:53:38;;;;;;;8.48;4.65;;;3.50;99.90;;;;;;4941871;29;21199;-79
2023/03/06 02:56:04;;;;;;;9.30;5.25;;;3.50;99.90;;;;;;4943002;28;20012;-78
2023/03/06 02:58:30;;;;;;;7.43;4.50;;;3.50;99.90;;;;;;4940483;29;20091;-77
2023/03/06 03:00:55;;;;;;;8.07;4.82;;;3.50;99.90;;;;;;4941925;29;20016;-79
2023/03/06 03:03:21;;;;;;;6.43;4.15;;;3.60;99.90;;;;;;4941735;29;20060;-79
2023/03/06 03:05:46;;;;;;;5.47;3.85;;;3.60;99.90;;;;;;4942259;29;20044;-78
2023/03/06 03:08:12;;;;;;;9.48;4.40;;;3.60;99.90;;;;;;4931046;29;20051;-77
2023/03/06 03:10:39;;;;;;;8.25;4.55;;;3.60;99.90;;;;;;4921749;29;20037;-78
2023/03/06 03:13:05;;;;;;;10.30;4.18;;;3.60;99.90;;;;;;4925516;29;20035;-78
2023/03/06 03:15:30;;;;;;;9.50;4.05;;;3.70;99.90;;;;;;4942172;29;20024;-78
2023/03/06 03:17:56;;;;;;;6.72;4.18;;;3.60;99.90;;;;;;4925454;29;20084;-80
2023/03/06 03:20:22;;;;;;;11.52;4.07;;;3.70;99.90;;;;;;4941686;29;20044;-79
2023/03/06 03:22:53;;;;;;;5.88;3.80;;;3.60;99.90;;;;;;4941453;29;20047;-80
2023/03/06 03:25:20;;;;;;;5.35;3.45;;;3.60;99.90;;;;;;4941247;29;20016;-79
2023/03/06 03:27:46;;;;;;;5.03;3.53;;;3.70;99.90;;;;;;4913112;29;20040;-78
2023/03/06 03:30:13;;;;;;;5.18;3.53;;;3.70;99.90;;;;;;4926790;29;20028;-79
2023/03/06 03:32:38;;;;;;;5.97;3.85;;;3.60;99.90;;;;;;4925886;29;20032;-79
2023/03/06 03:35:06;;;;;;;4.85;3.42;;;3.70;99.90;;;;;;4905711;29;20127;-79
2023/03/06 03:37:33;;;;;;;5.90;3.58;;;3.70;99.90;;;;;;4904686;29;20079;-79
2023/03/06 03:39:59;;;;;;;6.45;4.03;;;3.70;99.90;;;;;;4920607;29;20038;-78
2023/03/06 03:42:25;;;;;;;6.80;3.88;;;3.70;99.90;;;;;;4901856;29;20044;-79
2023/03/06 03:44:50;;;;;;;6.20;3.83;;;3.70;99.90;;;;;;4903039;29;20040;-79
2023/03/06 03:47:16;;;;;;;5.07;3.28;;;3.80;99.90;;;;;;4917726;29;20067;-79
2023/03/06 03:49:42;;;;;;;7.05;4.40;;;3.70;99.90;;;;;;4898757;29;20036;-80
2023/03/06 03:52:08;;;;;;;5.88;3.47;;;3.70;99.90;;;;;;4921441;29;20028;-79
2023/03/06 03:54:33;;;;;;;11.45;3.97;;;3.70;99.90;;;;;;4921776;29;20111;-78
2023/03/06 03:56:59;;;;;;;5.85;3.50;;;3.70;99.90;;;;;;4919964;29;20031;-79
2023/03/06 03:59:25;;;;;;;4.95;3.45;;;3.70;99.90;;;;;;4903499;29;20028;-79
2023/03/06 04:01:51;;;;;;;6.43;4.15;;;3.70;99.90;;;;;;4900210;29;20123;-78
2023/03/06 04:04:17;;;;;;;5.43;3.22;;;3.70;99.90;;;;;;4903160;29;20135;-78
2023/03/06 04:06:42;;;;;;;13.13;4.40;;;3.70;99.90;;;;;;4920458;29;20144;-78
2023/03/06 04:09:08;;;;;;;6.63;3.15;;;3.80;99.90;;;;;;4901559;29;20139;-78
2023/03/06 04:11:34;;;;;;;4.40;3.15;;;3.70;99.90;;;;;;4919208;29;20024;-77
2023/03/06 04:13:59;;;;;;;5.40;3.47;;;3.80;99.90;;;;;;4903325;29;20032;-78
2023/03/06 04:16:25;;;;;;;5.32;3.20;;;3.80;99.90;;;;;;4899684;29;20096;-78
2023/03/06 04:18:51;;;;;;;7.82;3.35;;;3.80;99.90;;;;;;4900283;29;20500;-79
2023/03/06 04:21:16;;;;;;;6.03;3.22;;;3.90;99.90;;;;;;4902292;29;20103;-78
2023/03/06 04:23:42;;;;;;;5.32;3.08;;;3.90;99.90;;;;;;4912259;29;20059;-78
2023/03/06 04:26:08;;;;;;;4.15;3.15;;;3.90;99.90;;;;;;4918125;29;20048;-78
2023/03/06 04:28:34;;;;;;;3.47;2.72;;;3.90;99.90;;;;;;4918887;29;20040;-79
2023/03/06 04:31:00;;;;;;;3.92;2.92;;;3.90;99.90;;;;;;4919894;29;20032;-79
2023/03/06 04:33:25;;;;;;;4.75;2.58;;;3.90;99.90;;;;;;4902037;29;20020;-79
2023/03/06 04:35:51;;;;;;;5.78;2.38;;;3.80;99.90;;;;;;4919692;29;20077;-79
2023/03/06 04:38:17;;;;;;;4.45;2.83;;;3.70;99.90;;;;;;4917082;29;20107;-79
2023/03/06 04:40:43;;;;;;;6.47;2.53;;;3.70;99.90;;;;;;4902880;29;20024;-78
2023/03/06 04:43:08;;;;;;;5.93;2.80;;;3.70;99.90;;;;;;4919469;29;20032;-77
2023/03/06 04:45:35;;;;;;;6.90;2.92;;;3.60;99.90;;;;;;4916832;29;20123;-79
2023/03/06 04:48:01;;;;;;;5.10;1.98;;;3.60;99.90;;;;;;4920071;29;20036;-79
2023/03/06 04:50:31;;;;;;;7.00;2.72;;;3.60;99.90;;;;;;4902617;29;20131;-78
2023/03/06 04:52:59;;;;;;;4.70;2.35;;;3.60;99.90;;;;;;4902398;29;20409;-78
2023/03/06 04:55:25;;;;;;;6.35;2.60;;;3.70;99.90;;;;;;4900586;29;20043;-78
2023/03/06 04:57:52;;;;;;;2.78;2.03;;;3.60;99.90;;;;;;4919930;29;20024;-79
2023/03/06 05:00:21;;;;;;;3.45;2.40;;;3.70;99.90;;;;;;4919268;29;20047;-78
2023/03/06 05:02:47;;;;;;;4.40;1.92;;;3.70;99.90;;;;;;4927768;29;20051;-78
2023/03/06 05:05:14;;;;;;;4.50;2.03;;;3.80;99.90;;;;;;4905913;29;20040;-78
2023/03/06 05:07:40;;;;;;;3.50;2.38;;;3.80;99.90;;;;;;4902436;29;20497;-78
2023/03/06 05:10:07;;;;;;;4.38;2.17;;;3.80;99.90;;;;;;4918297;29;20032;-81
2023/03/06 05:12:36;;;;;;;2.45;2.25;;;3.90;99.90;;;;;;4902418;29;20518;-80
2023/03/06 05:15:04;;;;;;;4.72;1.95;;;3.80;99.90;;;;;;4918062;29;20048;-80
2023/03/06 05:17:29;;;;;;;6.17;2.47;;;3.80;99.90;;;;;;4918970;29;20449;-78
2023/03/06 05:19:55;;;;;;;3.20;2.17;;;3.80;99.90;;;;;;4916907;29;20028;-78
2023/03/06 05:22:23;;;;;;;5.30;2.13;;;3.70;99.90;;;;;;4918229;29;20032;-78
2023/03/06 05:24:50;;;;;;;3.17;2.03;;;3.60;99.90;;;;;;4902116;29;20392;-77
2023/03/06 05:27:42;;;;;;;5.72;1.88;;;3.60;99.90;;;;;;4901510;29;20044;-78
2023/03/06 05:30:39;;;;;;;3.75;2.22;;;3.60;99.90;;;;;;4899858;29;20040;-78
2023/03/06 05:33:05;;;;;;;4.07;2.03;;;3.70;99.90;;;;;;4918197;29;20492;-78
2023/03/06 05:35:35;;;;;;;6.10;1.70;;;3.70;99.90;;;;;;4918413;29;20083;-76
2023/03/06 05:38:01;;;;;;;8.95;2.35;;;3.70;99.90;;;;;;4917675;29;20120;-77
2023/03/06 05:40:27;;;;;;;1.92;1.70;;;3.70;99.90;;;;;;4918875;29;20521;-78
2023/03/06 05:42:52;;;;;;;1.60;1.50;;;3.70;99.90;;;;;;4901329;29;20080;-77
2023/03/06 05:45:18;;;;;;;3.53;1.40;;;3.80;99.90;;;;;;4918973;29;20056;-78
2023/03/06 05:47:44;;;;;;;4.15;1.17;;;3.80;99.90;;;;;;4918733;29;20035;-78
2023/03/06 05:50:12;;;;;;;1.52;1.35;;;3.70;99.90;;;;;;4918503;29;20040;-79
2023/03/06 05:52:39;;;;;;;1.77;1.10;;;3.60;99.90;;;;;;4898420;29;20029;-78
2023/03/06 05:55:05;;;;;;;1.70;1.20;;;3.60;99.90;;;;;;4900888;29;20106;-79
2023/03/06 05:57:31;;;;;;;1.48;1.30;;;3.60;99.90;;;;;;4901367;29;20508;-80
2023/03/06 05:59:56;;;;;;;4.20;1.33;;;3.60;99.90;;;;;;4918436;29;20036;-78
2023/03/06 06:02:22;;;;;;;2.22;1.27;;;3.60;99.90;;;;;;4918047;29;20028;-79
2023/03/06 06:04:50;;;;;;;5.35;1.30;;;3.60;99.90;;;;;;4901178;29;20054;-78
2023/03/06 06:07:16;;;;;;;8.60;1.85;;;3.60;99.90;;;;;;4901476;29;20028;-79
2023/03/06 06:09:44;;;;;;;1.73;1.00;;;3.60;99.90;;;;;;4901236;29;20374;-80
2023/03/06 06:12:10;;;;;;;4.45;1.42;;;3.60;99.90;;;;;;4900521;29;20489;-78
2023/03/06 06:14:37;;;;;;;1.77;1.58;;;3.60;99.90;;;;;;4901331;29;20061;-79
2023/03/06 06:17:03;;;;;;;1.17;1.13;;;3.60;99.90;;;;;;4918189;29;20028;-79
2023/03/06 06:19:30;;;;;;;4.38;2.00;;;3.60;99.90;;;;;;4916800;29;20039;-79
2023/03/06 06:21:57;;;;;;;3.08;1.52;;;3.50;99.90;;;;;;4917921;29;20032;-79
2023/03/06 06:24:25;;;;;;;2.85;1.17;;;3.50;99.90;;;;;;4915387;29;20446;-78
2023/03/06 06:26:52;;;;;;;3.70;1.20;;;3.60;99.90;;;;;;4901188;29;20032;-80
2023/03/06 06:29:27;;;;;;;3.17;1.52;;;3.60;99.90;;;;;;4918059;29;20032;-79
2023/03/06 06:31:54;;;;;;;1.70;1.30;;;3.50;99.90;;;;;;4917324;29;20029;-79
2023/03/06 06:34:21;;;;;;;3.83;1.27;;;3.50;99.90;;;;;;4918027;29;20024;-79
2023/03/06 06:36:48;;;;;;;1.63;1.30;;;3.60;99.90;;;;;;4917001;29;20020;-79
2023/03/06 06:39:16;;;;;;;2.53;1.33;;;3.50;99.90;;;;;;4900909;29;20024;-80
2023/03/06 06:41:42;;;;;;;;;;;3.60;99.90;;;;;;4917792;29;20082;-80
2023/03/06 06:44:13;;;;;;;1.30;0.98;;;3.60;99.90;;;;;;4913136;29;20387;-79
2023/03/06 06:46:40;;;;;;;2.45;1.02;;;3.60;99.90;;;;;;4900536;29;20036;-79
2023/03/06 06:49:05;;;;;;;1.10;1.00;;;3.60;99.90;;;;;;4902073;29;20027;-79
2023/03/06 06:51:32;;;;;;;1.75;0.68;;;3.60;99.90;;;;;;4912380;29;20401;-79
2023/03/06 06:53:59;;;;;;;3.22;1.25;;;3.60;99.90;;;;;;4934847;29;20032;-78
2023/03/06 06:56:26;;;;;;;1.52;0.65;;;3.50;99.90;;;;;;4916881;29;20040;-78
2023/03/06 06:58:53;;;;;;;1.30;0.88;;;3.60;99.90;;;;;;4903189;29;20036;-78
2023/03/06 07:01:18;;;;;;;2.42;1.73;;;3.60;99.90;;;;;;4900709;29;20067;-79
2023/03/06 07:03:44;;;;;;;1.45;0.90;;;3.70;99.90;;;;;;4900307;29;20521;-78
2023/03/06 07:06:10;;;;;;;1.60;0.55;;;3.70;99.90;;;;;;4917196;29;20032;-79
2023/03/06 07:08:35;;;;;;;0.77;0.50;;;3.80;99.90;;;;;;4899972;29;20481;-77
2023/03/06 07:11:10;;;;;;;3.70;0.70;;;3.80;99.90;;;;;;4899898;29;20036;-77
2023/03/06 07:13:36;;;;;;;3.72;0.85;;;3.90;99.90;;;;;;4925246;29;20083;-79
2023/03/06 07:16:02;;;;;;;1.17;0.80;;;3.90;99.90;;;;;;4933519;29;20489;-78
2023/03/06 07:18:28;;;;;;;1.48;0.90;;;3.90;99.90;;;;;;4936993;29;20523;-79
2023/03/06 07:20:54;;;;;;;0.90;0.70;;;4.00;99.90;;;;;;4917825;29;20404;-78
2023/03/06 07:23:20;;;;;;;0.63;0.63;;;4.00;99.90;;;;;;4900020;29;20038;-78
2023/03/06 07:25:45;;;;;;;3.40;1.00;;;4.00;99.90;;;;;;4933276;29;20040;-78
2023/03/06 07:28:11;;;;;;;1.25;0.70;;;4.10;99.90;;;;;;4923317;29;20091;-78
2023/03/06 07:30:40;;;;;;;3.88;0.73;;;4.10;99.90;;;;;;4921230;29;20032;-79
2023/03/06 07:33:08;;;;;;;6.63;1.05;;;4.10;99.90;;;;;;4904219;29;20135;-80
2023/03/06 07:35:34;;;;;;;1.45;0.70;;;4.10;99.90;;;;;;4921004;29;20115;-79
2023/03/06 07:38:00;;;;;;;0.93;0.85;;;4.10;99.90;;;;;;4904275;29;20484;-78
2023/03/06 07:40:26;;;;;;;1.15;0.77;;;4.10;99.90;;;;;;4903673;29;20056;-78
2023/03/06 07:42:54;;;;;;;2.08;1.00;;;4.20;99.90;;;;;;4904217;29;20083;-78
2023/03/06 07:45:20;;;;;;;1.70;1.35;;;4.20;99.90;;;;;;4921010;29;20474;-78
2023/03/06 07:47:49;;;;;;;1.10;0.77;;;4.20;99.90;;;;;;4921039;29;20036;-78
2023/03/06 07:50:14;;;;;;;;;;;4.20;99.90;;;;;;4921507;29;20039;-78
2023/03/06 07:52:40;;;;;;;1.48;0.52;;;4.30;99.90;;;;;;4920766;29;19911;-78
2023/03/06 07:55:06;;;;;;;3.67;1.40;;;4.30;99.90;;;;;;4903640;29;20477;-77
2023/03/06 07:57:32;;;;;;;1.40;0.75;;;4.40;99.90;;;;;;4920412;29;20481;-78
2023/03/06 07:59:58;;;;;;;7.53;1.13;;;4.40;99.90;;;;;;4919509;29;20122;-78
2023/03/06 08:02:23;;;;;;;2.83;0.82;;;4.50;99.90;;;;;;4920041;29;20489;-79
2023/03/06 08:04:54;;;;;;;2.72;1.05;;;4.60;99.90;;;;;;4902044;29;20044;-78
2023/03/06 08:07:21;;;;;;;1.25;0.80;;;4.60;99.90;;;;;;4915671;29;20091;-78
2023/03/06 08:09:47;;;;;;;0.53;0.53;;;4.60;99.90;;;;;;4902988;29;20032;-81
2023/03/06 08:12:13;;;;;;;1.52;1.00;;;4.60;99.90;;;;;;4912620;29;20020;-80
2023/03/06 08:14:38;;;;;;;2.35;0.93;;;4.60;99.90;;;;;;4920447;29;20103;-79
2023/03/06 08:17:04;;;;;;;4.30;1.00;;;4.60;99.90;;;;;;4903041;29;20466;-79
2023/03/06 08:19:30;;;;;;;3.28;0.98;;;4.70;99.90;;;;;;4920573;29;20032;-79
2023/03/06 08:21:55;;;;;;;5.78;0.98;;;4.80;99.90;;;;;;4920873;29;20051;-79
2023/03/06 08:24:21;;;;;;;6.32;1.20;;;4.90;99.90;;;;;;4920304;29;20032;-79
2023/03/06 08:26:47;;;;;;;0.65;0.65;;;5.00;99.90;;;;;;4902704;29;20119;-79
2023/03/06 08:29:15;;;;;;;0.90;0.60;;;5.00;99.90;;;;;;4919865;29;20040;-79
2023/03/06 08:31:43;;;;;;;0.88;0.60;;;5.10;99.90;;;;;;4900418;29;20397;-80
2023/03/06 08:34:15;;;;;;;4.65;0.68;;;5.30;99.90;;;;;;4903171;29;20028;-80
2023/03/06 08:36:42;;;;;;;2.58;0.90;;;5.30;99.90;;;;;;4902557;29;20039;-81
2023/03/06 08:39:08;;;;;;;6.03;1.17;;;5.40;99.90;;;;;;4918762;29;20386;-80
2023/03/06 08:41:35;;;;;;;2.15;0.63;;;5.30;99.90;;;;;;4904127;29;20282;-80
2023/03/06 08:44:01;;;;;;;1.75;0.55;;;5.40;99.90;;;;;;4907907;29;20028;-79
2023/03/06 08:46:29;;;;;;;1.63;0.65;;;5.40;99.90;;;;;;4915734;29;20040;-78
2023/03/06 08:48:55;;;;;;;5.65;0.98;;;5.30;99.90;;;;;;4903012;29;20378;-78
2023/03/06 08:51:22;;;;;;;4.85;0.80;;;5.30;99.90;;;;;;4902690;29;20430;-78
2023/03/06 08:53:49;;;;;;;2.50;0.65;;;5.40;99.90;;;;;;4919470;29;20103;-77
2023/03/06 08:56:25;;;;;;;0.77;0.50;;;5.50;99.90;;;;;;4902415;29;20032;-80
2023/03/06 08:58:53;;;;;;;3.65;0.60;;;5.60;99.90;;;;;;4902545;29;20496;-79
2023/03/06 09:01:24;;;;;;;4.18;1.60;;;5.60;99.90;;;;;;4899638;29;20507;-80
2023/03/06 09:03:53;;;;;;;1.20;0.40;;;5.60;99.90;;;;;;4896260;29;20052;-78
2023/03/06 09:06:18;;;;;;;1.40;0.45;;;5.70;99.90;;;;;;4886861;29;20031;-78
2023/03/06 09:08:44;;;;;;;1.55;0.50;;;5.70;99.90;;;;;;4910616;29;20089;-80
2023/03/06 09:11:11;;;;;;;1.63;0.40;;;5.80;99.90;;;;;;4913119;29;20024;-80
2023/03/06 09:13:37;;;;;;;0.50;0.50;;;5.80;99.90;;;;;;4913476;29;20029;-80
2023/03/06 09:16:03;;;;;;;2.95;0.50;;;6.00;99.90;;;;;;4916857;29;20088;-79
2023/03/06 09:18:29;;;;;;;0.90;0.50;;;6.10;99.90;;;;;;4920527;29;20028;-79
2023/03/06 09:20:55;;;;;;;2.03;0.70;;;6.20;99.90;;;;;;4921371;29;20051;-81
2023/03/06 09:23:21;;;;;;;3.80;0.25;;;6.20;99.90;;;;;;4923619;29;20012;-79
2023/03/06 09:25:55;;;;;;;2.75;0.20;;;6.20;99.90;;;;;;4908343;29;20039;-77
2023/03/06 09:28:21;;;;;;;0.30;0.25;;;6.20;99.90;;;;;;4924619;29;20024;-80
2023/03/06 09:30:47;;;;;;;2.13;0.20;;;6.10;99.90;;;;;;4908070;29;20033;-81
2023/03/06 09:33:13;;;;;;;0.20;0.20;;;6.20;99.90;;;;;;4924807;29;20033;-78
2023/03/06 09:35:57;;;;;;;0.20;0.20;;;6.20;99.90;;;;;;4923001;29;20433;-81
2023/03/06 09:38:26;;;;;;;0.77;0.35;;;6.40;99.90;;;;;;4924752;29;20065;-79
2023/03/06 09:41:00;;;;;;;0.77;0.38;;;6.50;99.90;;;;;;4906550;29;20028;-79
2023/03/06 09:43:44;;;;;;;0.57;0.35;;;6.50;99.90;;;;;;4914703;29;20040;-79
2023/03/06 09:46:23;;;;;;;0.10;0.10;;;6.50;99.90;;;;;;4914699;29;20033;-81
2023/03/06 09:49:12;;;;;;;0.10;0.10;;;6.30;99.90;;;;;;4887844;29;20037;-79
2023/03/06 09:51:56;;;;;;;0.38;0.20;;;6.40;99.90;;;;;;4898330;29;20049;-80
2023/03/06 09:54:35;;;;;;;4.32;0.60;;;6.70;99.90;;;;;;4889548;29;20108;-80
2023/03/06 09:57:02;;;;;;;0.30;0.20;;;6.90;99.90;;;;;;4894325;29;20092;-79
2023/03/06 09:59:28;;;;;;;0.22;0.22;;;7.00;99.90;;;;;;4904785;29;20067;-80
2023/03/06 10:02:19;;;;;;;0.75;0.40;;;7.20;99.90;;;;;;4907902;29;20016;-78
2023/03/06 10:04:58;;;;;;;1.08;0.60;;;7.20;99.90;;;;;;4958863;28;20043;-80
2023/03/06 10:07:32;;;;;;;5.50;0.60;;;7.30;99.90;;;;;;4962382;28;20034;-80
2023/03/06 10:10:02;;;;;;;1.95;0.45;;;7.30;99.90;;;;;;4945876;28;20063;-79
2023/03/06 10:12:34;;;;;;;1.23;0.50;;;7.30;99.90;;;;;;4961770;28;20016;-80
2023/03/06 10:15:13;;;;;;;7.13;0.43;;;7.30;99.90;;;;;;4961920;28;20034;-79
2023/03/06 10:17:41;;;;;;;2.95;0.50;;;7.30;99.90;;;;;;4944254;29;20031;-79
2023/03/06 10:20:25;;;;;;;5.65;0.50;;;7.50;99.90;;;;;;4929570;29;20039;-79
2023/03/06 10:23:03;;;;;;;1.20;0.50;;;7.60;99.90;;;;;;4934869;29;20091;-78
2023/03/06 10:25:42;;;;;;;0.50;0.40;;;7.40;99.90;;;;;;4921036;29;20524;-79
2023/03/06 10:28:36;;;;;;;0.40;0.28;;;7.20;99.90;;;;;;4904360;29;20405;-79
2023/03/06 10:31:17;;;;;;;0.47;0.43;;;7.10;99.90;;;;;;4887053;29;20044;-79
2023/03/06 10:33:58;;;;;;;5.18;0.80;;;7.10;99.90;;;;;;4898709;29;20103;-81
2023/03/06 10:36:26;;;;;;;0.85;0.35;;;7.30;99.90;;;;;;4901641;29;20044;-86
2023/03/06 10:38:56;;;;;;;0.95;0.28;;;7.40;99.90;;;;;;4920660;29;20032;-79
2023/03/06 10:41:23;;;;;;;1.52;0.50;;;7.50;99.90;;;;;;4919649;29;20052;-80
2023/03/06 10:43:58;;;;;;;1.02;0.40;;;7.60;99.90;;;;;;4902964;29;20111;-81
2023/03/06 10:46:36;;;;;;;1.75;0.32;;;7.90;99.90;;;;;;4918471;29;20393;-81
2023/03/06 10:49:21;;;;;;;0.38;0.35;;;8.10;99.90;;;;;;4918931;29;20493;-82
2023/03/06 10:52:01;;;;;;;4.53;0.70;;;8.20;99.90;;;;;;4899613;29;20048;-81
2023/03/06 10:54:36;;;;;;;0.38;0.38;;;8.10;99.90;;;;;;4898297;29;20032;-81
2023/03/06 10:57:27;;;;;;;5.80;0.77;;;8.10;99.90;;;;;;4902384;29;20501;-80
2023/03/06 10:59:59;;;;;;;0.40;0.30;;;7.70;99.90;;;;;;4916726;29;20512;-80
2023/03/06 11:02:37;;;;;;;1.75;0.40;;;7.70;99.90;;;;;;4901294;29;20047;-82
2023/03/06 11:05:05;;;;;;;1.38;0.40;;;7.70;99.90;;;;;;4911479;29;20044;-82
2023/03/06 11:07:33;;;;;;;0.60;0.40;;;7.70;99.90;;;;;;4901833;29;20039;-81
2023/03/06 11:10:26;;;;;;;1.05;0.47;;;7.90;99.90;;;;;;4900645;29;20040;-81
2023/03/06 11:13:20;;;;;;;7.03;0.40;;;8.00;99.90;;;;;;4913646;29;20043;-81
2023/03/06 11:16:02;;;;;;;1.65;0.40;;;8.20;99.90;;;;;;4908662;29;20028;-81
2023/03/06 11:18:34;;;;;;;4.57;0.60;;;8.40;99.90;;;;;;4908868;29;20119;-81
2023/03/06 11:21:02;;;;;;;2.30;0.43;;;8.70;99.90;;;;;;4916641;29;20098;-82
2023/03/06 11:23:46;;;;;;;4.80;1.05;;;8.80;99.90;;;;;;4917115;29;20060;-82
2023/03/06 11:26:14;;;;;;;1.42;0.82;;;8.90;99.90;;;;;;4921462;29;20397;-86
2023/03/06 11:29:08;;;;;;;6.22;0.80;;;8.90;99.90;;;;;;4919082;29;20055;-82
2023/03/06 11:32:09;;;;;;;1.77;0.77;;;9.00;99.90;;;;;;4918894;29;20040;-81
2023/03/06 11:34:43;;;;;;;3.40;0.80;;;9.20;99.90;;;;;;4891106;29;20072;-79
2023/03/06 11:37:42;;;;;;;1.38;0.65;;;9.10;99.90;;;;;;4916570;29;20043;-82
2023/03/06 11:40:11;;;;;;;0.70;0.60;;;9.00;99.90;;;;;;4897955;29;20028;-83
2023/03/06 11:42:48;;;;;;;0.52;0.50;;;8.90;99.90;;;;;;4897927;29;20100;-82
2023/03/06 11:45:19;;;;;;;2.10;0.65;;;8.70;99.90;;;;;;4878120;29;20044;-82
2023/03/06 11:48:14;;;;;;;5.38;1.00;;;8.70;99.90;;;;;;4917788;29;20050;-82
2023/03/06 11:50:49;;;;;;;1.58;0.68;;;8.60;99.90;;;;;;4900548;29;20051;-82
2023/03/06 11:53:30;;;;;;;6.97;1.38;;;8.50;99.90;;;;;;4900829;29;20485;-83
2023/03/06 11:56:35;;;;;;;0.63;0.63;;;8.30;99.90;;;;;;4923873;29;20020;-83
2023/03/06 11:59:32;;;;;;;1.50;1.02;;;8.20;99.90;;;;;;4896327;29;20040;-81
2023/03/06 12:02:22;;;;;;;0.98;0.98;;;8.10;99.90;;;;;;4851263;29;20043;-82
2023/03/06 12:04:59;;;;;;;0.60;0.60;;;8.20;99.90;;;;;;4901818;29;20082;-84
2023/03/06 12:07:52;;;;;;;2.53;0.95;;;8.40;99.90;;;;;;4917486;29;20032;-81
2023/03/06 12:10:26;;;;;;;2.33;1.10;;;8.50;99.90;;;;;;4893708;29;20096;-82
2023/03/06 12:13:11;;;;;;;3.33;1.38;;;8.70;99.90;;;;;;4919130;29;20102;-80
2023/03/06 12:16:01;;;;;;;1.88;1.30;;;8.90;99.90;;;;;;4920158;29;20040;-80
2023/03/06 12:18:51;;;;;;;7.50;1.80;;;9.00;99.90;;;;;;4889033;29;20028;-81
2023/03/06 12:21:50;;;;;;;7.18;1.48;;;9.20;99.90;;;;;;4920176;29;20421;-79
2023/03/06 12:24:37;;;;;;;4.93;1.98;;;9.20;99.90;;;;;;4912737;29;20036;-84
2023/03/06 12:27:11;;;;;;;3.40;1.92;;;9.10;99.90;;;;;;4916639;29;20051;-83
2023/03/06 12:29:39;;;;;;;7.32;3.75;;;9.10;99.90;;;;;;4916151;29;20037;-80
2023/03/06 12:32:31;;;;;;;5.60;1.55;;;9.10;99.90;;;;;;4905359;29;20028;-81
2023/03/06 12:35:12;;;;;;;5.00;2.65;;;9.10;99.90;;;;;;4917977;29;20072;-79
2023/03/06 12:38:15;;;;;;;5.28;2.67;;;9.10;99.90;;;;;;4900736;29;20028;-74
2023/03/06 12:41:05;;;;;;;3.15;2.40;;;8.90;99.90;;;;;;4901495;29;20037;-75
2023/03/06 12:50:26;;;;;;;5.47;3.22;;;9.00;99.90;;;;;;4860284;29;20045;-41
2023/03/06 12:52:59;;;;;;;5.07;3.78;;;9.10;99.90;;;;;;4881290;29;20029;-40
2023/03/06 12:55:25;;;;;;;13.55;4.28;;;9.00;99.90;;;;;;4881192;29;20504;-40
2023/03/06 12:57:52;;;;;;;4.38;3.20;;;8.90;99.90;;;;;;4880174;29;20032;-38
2023/03/06 13:00:33;;;;;;;5.03;3.38;;;8.90;99.90;;;;;;4880392;29;20044;-41
2023/03/06 13:03:25;;;;;;;6.38;3.88;;;8.90;99.90;;;;;;4863163;29;20045;-45
2023/03/06 13:05:56;;;;;;;9.35;4.18;;;8.80;99.90;;;;;;4867837;29;20033;-39
2023/03/06 13:08:34;;;;;;;6.35;3.72;;;8.70;99.90;;;;;;4879435;29;20033;-41
2023/03/06 13:11:25;;;;;;;5.55;4.15;;;8.70;99.90;;;;;;4881150;29;20091;-41
2023/03/06 13:13:51;;;;;;;9.93;4.45;;;8.60;99.90;;;;;;4880738;29;20029;-40
2023/03/06 13:16:35;;;;;;;7.25;4.30;;;8.50;99.90;;;;;;4880995;29;20463;-41
2023/03/06 13:19:15;;;;;;;7.30;4.35;;;8.50;99.90;;;;;;4881085;29;20033;-40
2023/03/06 13:21:40;;;;;;;8.10;5.05;;;8.60;99.90;;;;;;4878581;29;20128;-40